| time (UTC) | temp C | wind direction | speed KPH | gust KPH | rain 1hr cm | rain 24hr cm | rain mn cm | humidity % | barometer mb |
| 20260504160356 | 27 | 7 | 8.0 | 9.7 | 0.00 | 0.00 | 0.00 | 44 | 1018.1 |
| 20260504150820 | 25 | 130 | 3.2 | 4.8 | 0.00 | 0.00 | 0.00 | 54 | 1018.1 |
| 20260504150316 | 25 | 336 | 3.2 | 4.8 | 0.00 | 0.00 | 0.00 | 55 | 1018.1 |
| 20260504141247 | 25 | 9 | 4.8 | 8.0 | 0.00 | 0.00 | 0.00 | 62 | 1017.9 |
| 20260504140743 | 25 | 134 | 3.2 | 4.8 | 0.00 | 0.00 | 0.00 | 62 | 1017.9 |
| 20260504140239 | 24 | 72 | 8.0 | 11.3 | 0.00 | 0.00 | 0.00 | 62 | 1017.9 |
| 20260504130708 | 22 | 74 | 6.4 | 8.0 | 0.00 | 0.00 | 0.00 | 66 | 1017.7 |
| 20260504130203 | 22 | 327 | 9.7 | 14.5 | 0.00 | 0.00 | 0.00 | 67 | 1017.7 |
| 20260504120127 | 20 | 25 | 8.0 | 11.3 | 0.00 | 0.00 | 0.00 | 79 | 1016.9 |
| 20260504110555 | 17 | 20 | 3.2 | 4.8 | 0.00 | 0.00 | 0.00 | 87 | 1016.8 |
| 20260504100517 | 17 | 263 | 0.0 | 0.0 | 0.00 | 0.00 | 0.00 | 89 | 1016.4 |
| 20260504081910 | 17 | 278 | 1.6 | 1.6 | 0.00 | 0.00 | 0.00 | 88 | 1016.2 |
| 20260504081406 | 17 | 294 | 1.6 | 1.6 | 0.00 | 0.00 | 0.00 | 88 | 1016.5 |
| 20260504080902 | 17 | 280 | 1.6 | 1.6 | 0.00 | 0.00 | 0.00 | 89 | 1016.3 |
| 20260504080400 | 17 | 282 | 0.0 | 0.0 | 0.00 | 0.00 | 0.00 | 89 | 1016.4 |
| 20260504070327 | 17 | 264 | 0.0 | 0.0 | 0.00 | 0.00 | 0.00 | 89 | 1016.6 |
| 20260504060247 | 19 | 302 | 0.0 | 0.0 | 0.00 | 0.00 | 0.00 | 84 | 1016.4 |
| 20260504050715 | 20 | 265 | 0.0 | 1.6 | 0.00 | 0.00 | 0.00 | 81 | 1017.7 |
| 20260504050212 | 20 | 264 | 0.0 | 0.0 | 0.00 | 0.00 | 0.00 | 80 | 1017.7 |
| 20260504045710 | 20 | 286 | 1.6 | 1.6 | 0.00 | 0.00 | 0.00 | 81 | 1017.8 |
| 20260504045210 | 20 | 280 | 0.0 | 1.6 | 0.00 | 0.00 | 0.00 | 81 | 1017.7 |
| 20260504044708 | 20 | 268 | 0.0 | 1.6 | 0.00 | 0.00 | 0.00 | 80 | 1017.8 |
| 20260504044205 | 20 | 266 | 0.0 | 1.6 | 0.00 | 0.00 | 0.00 | 80 | 1017.9 |
| 20260504043702 | 20 | 266 | 0.0 | 0.0 | 0.00 | 0.00 | 0.00 | 80 | 1017.8 |
| 20260504043158 | 20 | 241 | 0.0 | 0.0 | 0.00 | 0.00 | 0.00 | 80 | 1018.0 |
| 20260504042656 | 20 | 249 | 0.0 | 0.0 | 0.00 | 0.00 | 0.00 | 80 | 1017.9 |
| 20260504042152 | 20 | 236 | 1.6 | 1.6 | 0.00 | 0.00 | 0.00 | 80 | 1017.8 |
| 20260504041648 | 20 | 202 | 0.0 | 0.0 | 0.00 | 0.00 | 0.00 | 80 | 1017.8 |
| 20260504041144 | 20 | 137 | 1.6 | 3.2 | 0.00 | 0.00 | 0.00 | 80 | 1017.8 |
| 20260504040642 | 20 | 163 | 1.6 | 1.6 | 0.00 | 0.00 | 0.00 | 81 | 1018.1 |
| 20260504040138 | 20 | 198 | 1.6 | 1.6 | 0.00 | 0.00 | 0.00 | 81 | 1018.0 |
| 20260504035635 | 20 | 214 | 1.6 | 1.6 | 0.00 | 0.13 | 0.13 | 83 | 1018.1 |
| 20260504035132 | 20 | 273 | 0.0 | 1.6 | 0.00 | 0.13 | 0.13 | 83 | 1018.2 |
| 20260504034630 | 20 | 230 | 0.0 | 0.0 | 0.00 | 0.13 | 0.13 | 84 | 1017.9 |
| 20260504034126 | 20 | 247 | 0.0 | 1.6 | 0.00 | 0.13 | 0.13 | 83 | 1018.1 |
| 20260504033624 | 20 | 263 | 0.0 | 0.0 | 0.00 | 0.13 | 0.13 | 83 | 1017.9 |
| 20260504033121 | 20 | 281 | 3.2 | 4.8 | 0.00 | 0.13 | 0.13 | 78 | 1018.2 |
| 20260504032618 | 20 | 237 | 1.6 | 1.6 | 0.00 | 0.13 | 0.13 | 78 | 1017.9 |
| 20260504032115 | 20 | 238 | 0.0 | 0.0 | 0.00 | 0.13 | 0.13 | 78 | 1017.9 |
| 20260504031612 | 20 | 238 | 0.0 | 0.0 | 0.00 | 0.13 | 0.13 | 77 | 1018.0 |
| 20260504031108 | 20 | 221 | 0.0 | 1.6 | 0.00 | 0.13 | 0.13 | 77 | 1018.0 |
| 20260504030605 | 20 | 111 | 6.4 | 8.0 | 0.00 | 0.13 | 0.13 | 77 | 1018.0 |
| 20260504025559 | 20 | 243 | 0.0 | 0.0 | 0.00 | 0.13 | 0.13 | 77 | 1018.0 |
| 20260504025055 | 20 | 139 | 1.6 | 3.2 | 0.00 | 0.13 | 0.13 | 78 | 1018.0 |
| 20260504024553 | 20 | 269 | 1.6 | 1.6 | 0.00 | 0.13 | 0.13 | 78 | 1017.7 |
| 20260504024049 | 20 | 266 | 0.0 | 1.6 | 0.00 | 0.13 | 0.13 | 78 | 1017.9 |
| 20260504023546 | 20 | 260 | 0.0 | 0.0 | 0.00 | 0.13 | 0.13 | 78 | 1018.0 |
| 20260504023042 | 20 | 317 | 0.0 | 1.6 | 0.00 | 0.13 | 0.13 | 78 | 1017.8 |
| 20260504022538 | 20 | 256 | 0.0 | 0.0 | 0.00 | 0.13 | 0.13 | 78 | 1017.9 |
| 20260504022035 | 20 | 245 | 0.0 | 0.0 | 0.00 | 0.13 | 0.13 | 78 | 1017.7 |
| 20260504021532 | 20 | 235 | 0.0 | 0.0 | 0.00 | 0.13 | 0.13 | 78 | 1017.7 |
| 20260504021029 | 20 | 187 | 0.0 | 1.6 | 0.00 | 0.13 | 0.13 | 78 | 1017.5 |
| 20260504020526 | 20 | 213 | 0.0 | 0.0 | 0.00 | 0.13 | 0.13 | 78 | 1017.7 |
| 20260504020022 | 20 | 228 | 0.0 | 0.0 | 0.00 | 0.13 | 0.13 | 78 | 1017.7 |
| 20260504015519 | 20 | 219 | 0.0 | 1.6 | 0.00 | 0.13 | 0.13 | 78 | 1017.5 |
| 20260504015015 | 20 | 190 | 1.6 | 1.6 | 0.00 | 0.13 | 0.13 | 78 | 1017.3 |
| 20260504014511 | 20 | 227 | 1.6 | 1.6 | 0.00 | 0.13 | 0.13 | 78 | 1017.3 |
| 20260504014008 | 20 | 218 | 0.0 | 1.6 | 0.00 | 0.13 | 0.13 | 78 | 1017.3 |
| 20260504013506 | 20 | 230 | 0.0 | 0.0 | 0.00 | 0.13 | 0.13 | 78 | 1017.2 |
| 20260504013002 | 20 | 174 | 1.6 | 3.2 | 0.00 | 0.13 | 0.13 | 78 | 1017.3 |
| 20260504012500 | 20 | 255 | 1.6 | 1.6 | 0.00 | 0.13 | 0.13 | 78 | 1017.4 |
| 20260504011958 | 20 | 175 | 0.0 | 0.0 | 0.00 | 0.13 | 0.13 | 78 | 1017.3 |
| 20260504011454 | 20 | 210 | 0.0 | 0.0 | 0.00 | 0.13 | 0.13 | 77 | 1017.2 |
| 20260504010950 | 21 | 228 | 0.0 | 0.0 | 0.00 | 0.13 | 0.13 | 77 | 1017.1 |
| 20260504010446 | 21 | 190 | 1.6 | 1.6 | 0.00 | 0.13 | 0.13 | 76 | 1017.2 |
| 20260504005942 | 21 | 118 | 6.4 | 8.0 | 0.00 | 0.13 | 0.13 | 76 | 1017.1 |
| 20260504005439 | 21 | 165 | 0.0 | 1.6 | 0.00 | 0.13 | 0.13 | 76 | 1017.1 |
| 20260504004937 | 21 | 87 | 1.6 | 3.2 | 0.00 | 0.13 | 0.13 | 75 | 1017.0 |
| 20260504004434 | 21 | 169 | 1.6 | 3.2 | 0.00 | 0.13 | 0.13 | 75 | 1016.9 |
| 20260504003931 | 21 | 191 | 0.0 | 0.0 | 0.00 | 0.13 | 0.13 | 75 | 1016.9 |
| 20260504003427 | 21 | 179 | 1.6 | 1.6 | 0.00 | 0.13 | 0.13 | 74 | 1016.9 |
| 20260504002924 | 21 | 171 | 3.2 | 3.2 | 0.00 | 0.13 | 0.13 | 74 | 1016.6 |
| 20260504002421 | 21 | 178 | 3.2 | 4.8 | 0.00 | 0.13 | 0.13 | 73 | 1016.7 |
| 20260504001919 | 21 | 206 | 0.0 | 1.6 | 0.00 | 0.13 | 0.13 | 73 | 1016.6 |
| 20260504001416 | 21 | 135 | 1.6 | 3.2 | 0.00 | 0.13 | 0.13 | 73 | 1016.6 |
| 20260504000912 | 21 | 111 | 4.8 | 4.8 | 0.00 | 0.13 | 0.13 | 72 | 1016.4 |
| 20260504000410 | 21 | 170 | 1.6 | 3.2 | 0.00 | 0.13 | 0.13 | 72 | 1016.5 |
| 20260503235907 | 22 | 191 | 1.6 | 1.6 | 0.00 | 0.13 | 0.13 | 73 | 1016.6 |
| 20260503235405 | 22 | 152 | 3.2 | 3.2 | 0.00 | 0.13 | 0.13 | 72 | 1016.6 |
| 20260503234902 | 22 | 104 | 4.8 | 8.0 | 0.00 | 0.13 | 0.13 | 71 | 1016.3 |
| 20260503234359 | 22 | 182 | 1.6 | 1.6 | 0.00 | 0.13 | 0.13 | 71 | 1016.4 |
| 20260503233857 | 22 | 144 | 4.8 | 9.7 | 0.00 | 0.13 | 0.13 | 70 | 1016.3 |
| 20260503233353 | 22 | 131 | 3.2 | 4.8 | 0.00 | 0.13 | 0.13 | 69 | 1016.1 |
| 20260503232849 | 22 | 125 | 3.2 | 4.8 | 0.00 | 0.13 | 0.13 | 69 | 1016.3 |
| 20260503232347 | 22 | 118 | 6.4 | 9.7 | 0.00 | 0.13 | 0.13 | 69 | 1016.2 |
| 20260503231845 | 22 | 103 | 6.4 | 9.7 | 0.00 | 0.13 | 0.13 | 68 | 1016.1 |
| 20260503231342 | 23 | 110 | 6.4 | 9.7 | 0.00 | 0.13 | 0.13 | 68 | 1016.2 |
| 20260503230838 | 23 | 82 | 3.2 | 3.2 | 0.00 | 0.13 | 0.13 | 69 | 1016.2 |
| 20260503230335 | 23 | 144 | 4.8 | 4.8 | 0.00 | 0.13 | 0.13 | 68 | 1016.3 |
| 20260503225833 | 23 | 85 | 4.8 | 4.8 | 0.00 | 0.13 | 0.13 | 68 | 1016.2 |
| 20260503225328 | 23 | 105 | 4.8 | 9.7 | 0.00 | 0.13 | 0.13 | 67 | 1016.2 |
| 20260503224825 | 23 | 148 | 1.6 | 1.6 | 0.00 | 0.13 | 0.13 | 68 | 1016.2 |
| 20260503224322 | 23 | 240 | 1.6 | 1.6 | 0.00 | 0.13 | 0.13 | 67 | 1016.2 |
| 20260503223820 | 23 | 116 | 3.2 | 3.2 | 0.00 | 0.13 | 0.13 | 68 | 1016.1 |
| 20260503223317 | 23 | 153 | 1.6 | 3.2 | 0.00 | 0.13 | 0.13 | 67 | 1016.4 |
| 20260503222813 | 24 | 121 | 3.2 | 3.2 | 0.00 | 0.13 | 0.13 | 66 | 1016.1 |
| 20260503222311 | 24 | 242 | 0.0 | 0.0 | 0.00 | 0.13 | 0.13 | 65 | 1016.1 |
| 20260503221809 | 24 | 251 | 1.6 | 3.2 | 0.00 | 0.13 | 0.13 | 65 | 1016.1 |
| 20260503221307 | 24 | 244 | 1.6 | 1.6 | 0.00 | 0.13 | 0.13 | 65 | 1016.0 |
| 20260503220803 | 24 | 167 | 4.8 | 4.8 | 0.00 | 0.13 | 0.13 | 64 | 1015.9 |
| 20260503220300 | 24 | 208 | 4.8 | 9.7 | 0.00 | 0.13 | 0.13 | 63 | 1015.8 |
| 20260503215757 | 25 | 104 | 6.4 | 8.0 | 0.00 | 0.13 | 0.13 | 64 | 1016.0 |
| 20260503215253 | 24 | 104 | 1.6 | 1.6 | 0.00 | 0.13 | 0.13 | 64 | 1015.9 |
| 20260503214752 | 24 | 174 | 4.8 | 8.0 | 0.00 | 0.13 | 0.13 | 65 | 1016.0 |
| 20260503214249 | 24 | 148 | 1.6 | 1.6 | 0.00 | 0.13 | 0.13 | 65 | 1015.9 |
| 20260503213746 | 25 | 159 | 3.2 | 4.8 | 0.00 | 0.13 | 0.13 | 64 | 1015.8 |
| 20260503213244 | 25 | 44 | 4.8 | 4.8 | 0.00 | 0.13 | 0.13 | 64 | 1016.0 |
| 20260503212740 | 25 | 175 | 1.6 | 3.2 | 0.00 | 0.13 | 0.13 | 64 | 1015.9 |
| 20260503212238 | 25 | 100 | 8.0 | 12.9 | 0.00 | 0.13 | 0.13 | 63 | 1015.9 |
| 20260503211735 | 25 | 162 | 8.0 | 11.3 | 0.00 | 0.13 | 0.13 | 61 | 1015.7 |
| 20260503211231 | 25 | 93 | 9.7 | 12.9 | 0.00 | 0.13 | 0.13 | 62 | 1015.8 |
| 20260503210727 | 25 | 232 | 0.0 | 1.6 | 0.00 | 0.13 | 0.13 | 60 | 1015.9 |
| 20260503210225 | 25 | 182 | 3.2 | 3.2 | 0.00 | 0.13 | 0.13 | 60 | 1016.0 |
| 20260503205720 | 25 | 333 | 3.2 | 4.8 | 0.00 | 0.13 | 0.13 | 59 | 1015.9 |
| 20260503205216 | 25 | 102 | 3.2 | 4.8 | 0.00 | 0.13 | 0.13 | 60 | 1015.7 |
| 20260503204713 | 25 | 3 | 8.0 | 8.0 | 0.00 | 0.13 | 0.13 | 59 | 1016.1 |
| 20260503204211 | 26 | 130 | 8.0 | 11.3 | 0.00 | 0.13 | 0.13 | 58 | 1016.0 |
| 20260503203708 | 26 | 103 | 3.2 | 4.8 | 0.00 | 0.13 | 0.13 | 59 | 1015.7 |
| 20260503203205 | 26 | 250 | 3.2 | 8.0 | 0.00 | 0.13 | 0.13 | 57 | 1016.1 |
| 20260503202702 | 27 | 112 | 1.6 | 3.2 | 0.00 | 0.13 | 0.13 | 57 | 1016.1 |
| 20260503202200 | 26 | 312 | 1.6 | 1.6 | 0.00 | 0.13 | 0.13 | 59 | 1016.0 |
| 20260503201658 | 26 | 148 | 1.6 | 3.2 | 0.00 | 0.13 | 0.13 | 59 | 1016.1 |
| 20260503201155 | 26 | 127 | 8.0 | 11.3 | 0.00 | 0.13 | 0.13 | 56 | 1016.0 |
| 20260503200651 | 26 | 139 | 9.7 | 11.3 | 0.00 | 0.13 | 0.13 | 57 | 1016.0 |
| 20260503200148 | 26 | 181 | 4.8 | 8.0 | 0.00 | 0.13 | 0.13 | 57 | 1016.3 |
| 20260503195644 | 26 | 135 | 3.2 | 4.8 | 0.00 | 0.13 | 0.13 | 57 | 1016.3 |
| 20260503195142 | 26 | 107 | 6.4 | 9.7 | 0.00 | 0.13 | 0.13 | 57 | 1016.5 |
| 20260503194639 | 26 | 241 | 1.6 | 1.6 | 0.00 | 0.13 | 0.13 | 58 | 1016.4 |
| 20260503194134 | 27 | 294 | 3.2 | 4.8 | 0.00 | 0.13 | 0.13 | 57 | 1016.7 |
| 20260503193631 | 26 | 134 | 1.6 | 3.2 | 0.00 | 0.13 | 0.13 | 59 | 1016.8 |
| 20260503193126 | 26 | 255 | 0.0 | 1.6 | 0.00 | 0.13 | 0.13 | 59 | 1016.9 |
| 20260503192622 | 25 | 165 | 3.2 | 3.2 | 0.00 | 0.13 | 0.13 | 61 | 1016.9 |
| 20260503192118 | 26 | 348 | 4.8 | 8.0 | 0.00 | 0.13 | 0.13 | 60 | 1017.0 |
| 20260503191615 | 27 | 233 | 4.8 | 8.0 | 0.00 | 0.13 | 0.13 | 58 | 1017.3 |
| 20260503191112 | 26 | 247 | 1.6 | 1.6 | 0.00 | 0.13 | 0.13 | 61 | 1017.2 |
| 20260503190609 | 25 | 290 | 0.0 | 1.6 | 0.00 | 0.13 | 0.13 | 61 | 1017.2 |
| 20260503190106 | 25 | 246 | 0.0 | 1.6 | 0.00 | 0.13 | 0.13 | 61 | 1017.5 |
| 20260503185603 | 25 | 115 | 4.8 | 4.8 | 0.00 | 0.13 | 0.13 | 61 | 1017.4 |
| 20260503185102 | 26 | 90 | 1.6 | 3.2 | 0.00 | 0.13 | 0.13 | 60 | 1017.5 |
| 20260503184558 | 26 | 116 | 3.2 | 8.0 | 0.00 | 0.13 | 0.13 | 61 | 1017.5 |
| 20260503184055 | 26 | 128 | 3.2 | 4.8 | 0.00 | 0.13 | 0.13 | 60 | 1017.5 |
| 20260503183551 | 26 | 136 | 6.4 | 12.9 | 0.00 | 0.13 | 0.13 | 61 | 1017.7 |
| 20260503183049 | 26 | 290 | 3.2 | 4.8 | 0.00 | 0.13 | 0.13 | 62 | 1017.8 |
| 20260503182547 | 25 | 258 | 0.0 | 1.6 | 0.00 | 0.13 | 0.13 | 64 | 1017.7 |
| 20260503182045 | 26 | 108 | 6.4 | 9.7 | 0.00 | 0.13 | 0.13 | 61 | 1018.0 |
| 20260503181541 | 25 | 290 | 4.8 | 4.8 | 0.00 | 0.13 | 0.13 | 63 | 1018.1 |
| 20260503181038 | 25 | 101 | 4.8 | 8.0 | 0.00 | 0.13 | 0.13 | 63 | 1018.0 |
| 20260503180535 | 25 | 328 | 4.8 | 4.8 | 0.00 | 0.13 | 0.13 | 65 | 1018.0 |
| 20260503180032 | 25 | 224 | 3.2 | 9.7 | 0.00 | 0.13 | 0.13 | 64 | 1018.2 |
| 20260503175530 | 25 | 236 | 3.2 | 4.8 | 0.00 | 0.13 | 0.13 | 65 | 1018.2 |
| 20260503175027 | 25 | 295 | 4.8 | 4.8 | 0.00 | 0.13 | 0.13 | 66 | 1018.2 |
| 20260503174524 | 25 | 149 | 6.4 | 9.7 | 0.00 | 0.13 | 0.13 | 64 | 1018.2 |
| 20260503174020 | 24 | 222 | 3.2 | 3.2 | 0.00 | 0.13 | 0.13 | 68 | 1018.3 |
| 20260503173515 | 24 | 133 | 0.0 | 3.2 | 0.00 | 0.13 | 0.13 | 67 | 1018.3 |
| 20260503173012 | 25 | 14 | 4.8 | 12.9 | 0.00 | 0.13 | 0.13 | 66 | 1018.2 |
| 20260503172510 | 25 | 201 | 0.0 | 1.6 | 0.00 | 0.13 | 0.13 | 67 | 1018.1 |
| 20260503172006 | 25 | 258 | 1.6 | 1.6 | 0.00 | 0.13 | 0.13 | 67 | 1018.2 |
| 20260503171503 | 24 | 184 | 3.2 | 4.8 | 0.00 | 0.13 | 0.13 | 67 | 1018.4 |
| 20260503171000 | 24 | 73 | 4.8 | 8.0 | 0.00 | 0.13 | 0.13 | 66 | 1018.4 |
| 20260503170456 | 24 | 247 | 0.0 | 0.0 | 0.00 | 0.13 | 0.13 | 67 | 1018.5 |